Time;durP1;ratioP1;P1;durP2;ratioP2;P2;SDS_P1;SDS_P2;PMS_P1;PMS_P2;Temp;Humidity;BMP_temperature;BMP_pressure;BME280_temperature;BME280_humidity;BME280_pressure;Samples;Min_cycle;Max_cycle;Signal;HPM_P1;HPM_P2
2022/12/09 00:00:13;;;;;;;4.53;1.53;;;20.10;47.60;;;;;;5036403;28;20227;-69
2022/12/09 00:02:40;;;;;;;6.73;1.20;;;20.30;46.80;;;;;;5043648;28;20535;-67
2022/12/09 00:05:08;;;;;;;9.10;1.60;;;20.40;46.40;;;;;;5032958;28;20301;-67
2022/12/09 00:07:36;;;;;;;6.60;1.60;;;20.80;46.20;;;;;;5037434;28;20211;-67
2022/12/09 00:10:05;;;;;;;4.83;1.80;;;20.30;45.40;;;;;;5046622;28;20207;-67
2022/12/09 00:12:32;;;;;;;6.30;1.40;;;20.00;46.30;;;;;;5034484;28;20234;-68
2022/12/09 00:15:00;;;;;;;6.97;1.30;;;19.90;46.50;;;;;;5043580;28;20229;-69
2022/12/09 00:17:27;;;;;;;4.40;1.40;;;20.70;44.70;;;;;;5038836;28;20184;-69
2022/12/09 00:19:55;;;;;;;5.23;1.43;;;20.90;44.20;;;;;;5036562;28;20178;-68
2022/12/09 00:22:22;;;;;;;6.07;1.53;;;20.90;43.00;;;;;;5046846;28;20270;-67
2022/12/09 00:24:49;;;;;;;8.97;1.90;;;21.10;43.60;;;;;;5045227;28;20180;-68
2022/12/09 00:27:17;;;;;;;4.93;1.53;;;21.30;42.70;;;;;;5046469;28;20637;-69
2022/12/09 00:29:44;;;;;;;7.73;1.70;;;20.90;43.50;;;;;;5046027;28;20619;-67
2022/12/09 00:32:12;;;;;;;5.27;1.30;;;21.40;43.00;;;;;;5033361;28;20295;-67
2022/12/09 00:34:41;;;;;;;8.77;1.87;;;20.90;42.80;;;;;;5032472;28;20540;-68
2022/12/09 00:37:08;;;;;;;4.63;1.60;;;20.70;43.10;;;;;;5034082;28;20549;-67
2022/12/09 00:39:35;;;;;;;5.00;1.20;;;20.10;44.00;;;;;;5040090;28;20646;-66
2022/12/09 00:42:03;;;;;;;6.40;1.43;;;20.20;44.40;;;;;;5050724;28;20646;-73
2022/12/09 00:44:30;;;;;;;6.67;1.47;;;20.90;42.50;;;;;;5037879;28;20272;-66
2022/12/09 00:46:58;;;;;;;3.80;1.30;;;21.10;42.50;;;;;;5043379;28;20209;-67
2022/12/09 00:49:25;;;;;;;3.47;1.30;;;21.60;41.70;;;;;;5046988;28;20738;-67
2022/12/09 00:51:52;;;;;;;6.73;1.23;;;22.10;39.90;;;;;;5046820;28;20573;-67
2022/12/09 00:54:20;;;;;;;4.20;1.60;;;21.80;41.00;;;;;;5039852;28;20220;-67
2022/12/09 00:56:47;;;;;;;7.17;1.53;;;21.90;40.70;;;;;;5048474;28;20547;-67
2022/12/09 00:59:15;;;;;;;6.30;1.63;;;22.10;40.10;;;;;;5045902;28;20168;-68
2022/12/09 01:01:42;;;;;;;4.83;1.43;;;22.30;39.80;;;;;;5048502;28;20184;-67
2022/12/09 01:04:10;;;;;;;11.90;1.93;;;22.20;39.50;;;;;;5035297;28;20642;-67
2022/12/09 01:06:37;;;;;;;5.80;1.57;;;22.10;40.00;;;;;;5034206;28;20285;-66
2022/12/09 01:09:05;;;;;;;4.23;1.13;;;22.10;39.70;;;;;;5050848;28;20180;-68
2022/12/09 01:11:32;;;;;;;4.20;1.23;;;22.20;39.20;;;;;;5040295;28;20666;-67
2022/12/09 01:14:01;;;;;;;5.23;1.50;;;21.80;39.90;;;;;;5046769;28;20195;-68
2022/12/09 01:16:31;;;;;;;9.30;1.57;;;21.90;39.50;;;;;;5053056;28;20206;-66
2022/12/09 01:19:01;;;;;;;6.87;1.60;;;21.70;40.20;;;;;;5055095;28;20188;-67
2022/12/09 01:21:30;;;;;;;5.80;1.20;;;22.00;41.00;;;;;;5049120;28;20200;-67
2022/12/09 01:23:57;;;;;;;5.10;1.40;;;22.10;39.90;;;;;;5045883;28;20176;-67
2022/12/09 01:26:25;;;;;;;4.17;1.30;;;22.10;39.90;;;;;;5042134;28;20681;-71
2022/12/09 01:28:53;;;;;;;7.60;1.30;;;22.00;39.50;;;;;;5050134;28;20727;-66
2022/12/09 01:31:23;;;;;;;5.43;1.60;;;22.10;39.80;;;;;;5043376;28;20712;-70
2022/12/09 01:33:51;;;;;;;3.60;1.20;;;22.70;39.10;;;;;;5050213;28;20713;-68
2022/12/09 01:36:23;;;;;;;6.03;1.37;;;22.60;38.90;;;;;;5034162;28;20181;-67
2022/12/09 01:38:50;;;;;;;9.63;1.77;;;21.90;39.70;;;;;;5035347;28;20172;-67
2022/12/09 01:41:19;;;;;;;7.20;1.50;;;21.90;40.50;;;;;;5035562;28;20213;-67
2022/12/09 01:44:06;;;;;;;7.70;1.57;;;22.10;40.60;;;;;;5035569;28;20178;-68
2022/12/09 01:46:33;;;;;;;4.63;1.47;;;22.20;39.60;;;;;;5035806;28;20172;-68
2022/12/09 01:49:01;;;;;;;3.23;1.40;;;21.80;40.10;;;;;;5052897;28;20221;-69
2022/12/09 01:51:29;;;;;;;7.43;1.50;;;22.00;40.40;;;;;;5062338;28;20722;-70
2022/12/09 01:53:56;;;;;;;5.00;1.40;;;22.60;39.90;;;;;;5046859;28;20182;-68
2022/12/09 01:56:35;;;;;;;4.77;1.63;;;22.80;38.50;;;;;;5050545;28;20224;-70
2022/12/09 01:59:09;;;;;;;6.30;1.70;;;22.80;38.80;;;;;;5035784;28;20207;-70
2022/12/09 02:01:37;;;;;;;7.50;1.47;;;22.50;38.60;;;;;;5043774;28;20188;-68
2022/12/09 02:04:05;;;;;;;6.60;1.40;;;22.90;38.90;;;;;;5038222;28;20216;-68
2022/12/09 02:06:35;;;;;;;4.97;1.30;;;22.80;39.30;;;;;;5034303;28;20176;-66
2022/12/09 02:09:03;;;;;;;17.77;1.60;;;22.60;40.30;;;;;;5044925;28;20205;-67
2022/12/09 02:11:48;;;;;;;6.20;1.40;;;22.80;38.90;;;;;;5048572;28;20220;-69
2022/12/09 02:14:41;;;;;;;6.47;1.40;;;22.80;39.00;;;;;;5043796;28;20180;-67
2022/12/09 02:17:11;;;;;;;10.23;2.10;;;23.10;38.40;;;;;;5034074;28;20554;-67
2022/12/09 02:19:39;;;;;;;3.30;1.33;;;23.20;38.10;;;;;;5034210;28;20165;-67
2022/12/09 02:22:09;;;;;;;5.70;1.47;;;23.30;38.30;;;;;;5037613;28;20183;-67
2022/12/09 02:24:52;;;;;;;4.83;1.47;;;23.50;37.60;;;;;;5054851;28;20229;-66
2022/12/09 02:27:46;;;;;;;6.80;1.70;;;23.80;37.20;;;;;;5034526;28;20173;-67
2022/12/09 02:30:22;;;;;;;8.33;1.53;;;23.80;36.60;;;;;;5026739;28;20231;-66
2022/12/09 02:33:07;;;;;;;8.73;1.60;;;23.80;37.20;;;;;;5034619;28;20234;-67
2022/12/09 02:36:01;;;;;;;4.63;1.60;;;23.90;36.50;;;;;;5035863;28;20181;-66
2022/12/09 02:38:32;;;;;;;4.77;1.50;;;24.30;37.10;;;;;;5033592;28;20811;-67
2022/12/09 02:41:24;;;;;;;8.07;1.67;;;24.10;35.90;;;;;;5044971;28;20172;-67
2022/12/09 02:44:00;;;;;;;7.10;1.50;;;23.30;38.30;;;;;;5045556;28;20275;-67
2022/12/09 02:46:28;;;;;;;11.13;1.90;;;23.30;37.50;;;;;;5034179;28;20176;-66
2022/12/09 02:48:58;;;;;;;4.87;1.20;;;23.50;37.90;;;;;;5033495;28;20639;-68
2022/12/09 02:51:29;;;;;;;5.03;1.40;;;23.80;37.60;;;;;;5033487;28;20269;-66
2022/12/09 02:54:06;;;;;;;5.03;1.37;;;23.80;37.20;;;;;;5035391;28;20188;-70
2022/12/09 02:56:34;;;;;;;3.97;1.23;;;24.20;36.80;;;;;;5039928;28;20702;-67
2022/12/09 02:59:02;;;;;;;7.53;1.70;;;23.80;36.70;;;;;;5053910;28;20658;-67
2022/12/09 03:01:35;;;;;;;4.37;1.07;;;23.80;37.10;;;;;;5046989;28;20180;-67
2022/12/09 03:04:03;;;;;;;4.40;1.40;;;23.50;37.00;;;;;;5040458;28;20178;-67
2022/12/09 03:06:41;;;;;;;4.37;1.40;;;23.40;37.50;;;;;;5035018;28;20242;-67
2022/12/09 03:09:17;;;;;;;7.17;1.60;;;23.80;37.80;;;;;;5033451;28;20180;-67
2022/12/09 03:11:47;;;;;;;3.27;1.20;;;24.30;36.20;;;;;;5035663;28;20171;-68
2022/12/09 03:14:22;;;;;;;6.13;1.23;;;24.30;36.90;;;;;;5051284;28;20183;-68
2022/12/09 03:17:04;;;;;;;6.60;1.37;;;24.20;36.20;;;;;;5047729;28;20186;-67
2022/12/09 03:19:57;;;;;;;7.27;1.50;;;23.90;36.60;;;;;;5037279;28;20256;-67
2022/12/09 03:22:28;;;;;;;5.90;1.30;;;23.60;36.60;;;;;;5043798;28;20514;-66
2022/12/09 03:25:09;;;;;;;5.63;1.77;;;24.00;37.20;;;;;;5053463;28;20888;-66
2022/12/09 03:27:46;;;;;;;7.20;1.63;;;24.20;35.70;;;;;;5053240;28;20610;-67
2022/12/09 03:30:15;;;;;;;5.03;1.17;;;24.00;36.90;;;;;;5049216;28;20212;-66
2022/12/09 03:32:44;;;;;;;8.03;1.63;;;23.90;36.60;;;;;;5037372;28;20184;-67
2022/12/09 03:35:23;;;;;;;8.83;1.70;;;23.80;36.90;;;;;;5034081;28;20222;-67
2022/12/09 03:37:52;;;;;;;6.00;1.27;;;23.70;37.90;;;;;;5042066;28;20643;-67
2022/12/09 03:40:29;;;;;;;10.13;1.60;;;24.30;36.00;;;;;;5043143;28;20195;-66
2022/12/09 03:43:18;;;;;;;6.13;1.10;;;23.70;37.40;;;;;;5052787;28;20183;-68
2022/12/09 03:45:47;;;;;;;3.50;1.40;;;24.10;36.40;;;;;;5049857;28;20179;-66
2022/12/09 03:48:15;;;;;;;5.97;1.53;;;24.40;36.40;;;;;;5043199;28;20188;-68
2022/12/09 03:50:49;;;;;;;4.47;1.47;;;24.40;36.30;;;;;;5042512;28;20569;-67
2022/12/09 03:53:27;;;;;;;7.73;1.60;;;24.50;35.90;;;;;;5034913;28;20180;-68
2022/12/09 03:56:15;;;;;;;4.20;1.37;;;25.10;35.10;;;;;;5041060;28;20227;-68
2022/12/09 03:58:45;;;;;;;5.73;1.40;;;25.00;34.30;;;;;;5044487;28;20187;-67
2022/12/09 04:01:13;;;;;;;3.97;1.33;;;25.20;34.60;;;;;;5039428;28;20212;-67
2022/12/09 04:03:47;;;;;;;8.70;1.50;;;24.70;35.30;;;;;;5048090;28;20186;-69
2022/12/09 04:06:14;;;;;;;8.57;1.87;;;24.80;34.40;;;;;;5044006;28;20179;-67
2022/12/09 04:08:42;;;;;;;7.63;1.57;;;23.90;36.00;;;;;;5049806;28;20246;-67
2022/12/09 04:11:09;;;;;;;7.83;1.20;;;24.30;34.80;;;;;;5044874;28;20223;-67
2022/12/09 04:13:36;;;;;;;7.43;1.20;;;24.70;34.20;;;;;;5049705;28;20183;-67
2022/12/09 04:16:04;;;;;;;2.40;1.00;;;24.50;34.40;;;;;;5051335;28;20234;-67
2022/12/09 04:18:32;;;;;;;4.20;1.37;;;24.30;34.80;;;;;;5048079;28;20188;-67
2022/12/09 04:21:01;;;;;;;7.07;1.27;;;25.50;34.10;;;;;;5043143;28;20246;-66
2022/12/09 04:23:29;;;;;;;6.67;1.23;;;24.90;33.60;;;;;;5040016;28;20184;-68
2022/12/09 04:25:56;;;;;;;10.00;1.90;;;25.50;33.00;;;;;;5047165;28;20204;-68
2022/12/09 04:28:24;;;;;;;5.47;1.10;;;25.40;33.50;;;;;;5049351;28;20194;-68
2022/12/09 04:30:51;;;;;;;4.83;1.33;;;24.80;34.00;;;;;;5047113;28;20705;-66
2022/12/09 04:33:18;;;;;;;4.40;1.40;;;24.60;35.40;;;;;;5050184;28;20190;-67
2022/12/09 04:35:46;;;;;;;6.60;1.40;;;24.90;33.70;;;;;;5048887;28;20187;-67
2022/12/09 04:38:13;;;;;;;4.73;1.17;;;25.00;33.50;;;;;;5048257;28;20585;-65
2022/12/09 04:40:41;;;;;;;7.90;1.47;;;25.70;32.80;;;;;;5051137;28;20603;-66
2022/12/09 04:43:08;;;;;;;4.03;1.30;;;26.10;32.70;;;;;;5037773;28;20185;-67
2022/12/09 04:45:36;;;;;;;8.80;1.83;;;27.30;30.40;;;;;;5045937;28;20599;-67
2022/12/09 04:48:04;;;;;;;6.87;1.50;;;26.30;31.90;;;;;;5042897;28;20173;-67
2022/12/09 04:50:31;;;;;;;6.27;1.50;;;26.60;31.50;;;;;;5047635;28;20880;-66
2022/12/09 04:52:58;;;;;;;6.23;1.57;;;27.00;31.10;;;;;;5042603;28;20177;-68
2022/12/09 04:55:26;;;;;;;7.07;1.40;;;26.20;32.20;;;;;;5044448;28;20262;-66
2022/12/09 04:57:53;;;;;;;7.60;2.10;;;26.90;31.80;;;;;;5043307;28;20187;-68
2022/12/09 05:00:21;;;;;;;6.87;1.40;;;26.80;31.60;;;;;;5044295;28;20192;-66
2022/12/09 05:02:48;;;;;;;3.93;1.50;;;26.30;32.30;;;;;;5044414;28;20176;-66
2022/12/09 05:05:16;;;;;;;5.27;1.37;;;26.70;32.00;;;;;;5042645;28;20195;-68
2022/12/09 05:07:43;;;;;;;9.70;1.77;;;25.90;33.30;;;;;;5043277;28;20182;-66
2022/12/09 05:10:11;;;;;;;4.80;1.20;;;25.00;34.50;;;;;;5044067;28;20215;-66
2022/12/09 05:12:39;;;;;;;5.43;1.63;;;25.10;35.00;;;;;;5047633;28;20546;-67
2022/12/09 05:15:07;;;;;;;8.10;1.30;;;25.60;33.90;;;;;;5043858;28;20181;-66
2022/12/09 05:17:34;;;;;;;5.40;1.30;;;26.10;33.10;;;;;;5043010;28;20176;-66
2022/12/09 05:20:02;;;;;;;8.00;1.40;;;26.80;33.00;;;;;;5044797;28;20187;-66
2022/12/09 05:22:29;;;;;;;4.73;1.30;;;26.90;31.40;;;;;;5042286;28;20176;-66
2022/12/09 05:24:56;;;;;;;7.77;1.40;;;27.70;30.70;;;;;;5040918;28;20697;-67
2022/12/09 05:27:24;;;;;;;5.07;1.47;;;26.20;33.30;;;;;;5044465;28;20271;-66
2022/12/09 05:29:51;;;;;;;6.60;1.20;;;26.30;32.90;;;;;;5039073;28;20261;-66
2022/12/09 05:32:18;;;;;;;5.83;1.40;;;26.10;33.60;;;;;;5038731;28;20179;-66
2022/12/09 05:34:46;;;;;;;5.53;1.07;;;26.00;34.10;;;;;;5042304;28;20223;-67
2022/12/09 05:37:14;;;;;;;6.83;1.43;;;26.30;33.10;;;;;;5044451;28;20191;-66
2022/12/09 05:39:42;;;;;;;4.97;1.40;;;27.10;32.10;;;;;;5050670;28;20180;-69
2022/12/09 05:42:09;;;;;;;4.30;1.80;;;27.80;31.70;;;;;;5052296;28;20199;-66
2022/12/09 05:44:36;;;;;;;4.97;1.10;;;26.60;32.70;;;;;;5049195;28;20250;-65
2022/12/09 05:47:04;;;;;;;3.77;1.30;;;26.80;32.90;;;;;;5046428;28;20189;-66
2022/12/09 05:49:32;;;;;;;4.83;1.43;;;26.60;33.70;;;;;;5052971;28;20184;-67
2022/12/09 05:51:59;;;;;;;5.67;1.10;;;26.40;34.20;;;;;;5046624;28;20185;-66
2022/12/09 05:54:26;;;;;;;6.50;1.20;;;26.30;34.10;;;;;;5056152;28;20249;-68
2022/12/09 05:56:55;;;;;;;6.23;1.67;;;25.00;36.10;;;;;;5040574;28;20196;-67
2022/12/09 05:59:23;;;;;;;5.00;1.13;;;25.00;36.60;;;;;;5050573;28;20180;-66
2022/12/09 06:01:52;;;;;;;7.77;1.90;;;25.00;35.80;;;;;;5045350;28;20643;-65
2022/12/09 06:04:19;;;;;;;9.80;1.33;;;25.90;34.40;;;;;;5052782;28;20187;-67
2022/12/09 06:06:47;;;;;;;7.90;1.47;;;26.40;33.20;;;;;;5043976;28;20529;-70
2022/12/09 06:09:14;;;;;;;4.43;1.30;;;26.00;34.20;;;;;;5047821;28;20242;-69
2022/12/09 06:11:42;;;;;;;4.47;1.10;;;26.70;32.60;;;;;;5054410;28;20188;-70
2022/12/09 06:14:10;;;;;;;8.60;1.33;;;26.80;32.40;;;;;;5050675;28;20189;-67
2022/12/09 06:16:38;;;;;;;6.10;1.57;;;26.30;32.80;;;;;;5043638;28;20274;-67
2022/12/09 06:19:06;;;;;;;8.47;1.70;;;25.10;35.50;;;;;;5049132;28;20951;-67
2022/12/09 06:21:33;;;;;;;4.37;1.20;;;24.60;36.00;;;;;;5049905;28;20180;-69
2022/12/09 06:24:00;;;;;;;4.67;1.30;;;25.10;35.50;;;;;;5043518;28;20646;-67
2022/12/09 06:26:29;;;;;;;7.93;1.73;;;25.80;34.60;;;;;;5042870;28;20176;-66
2022/12/09 06:28:58;;;;;;;5.23;1.70;;;25.80;34.70;;;;;;5048377;28;20309;-67
2022/12/09 06:31:27;;;;;;;8.27;1.43;;;25.60;35.20;;;;;;5051204;28;20261;-68
2022/12/09 06:33:54;;;;;;;3.90;1.20;;;25.30;34.20;;;;;;5051985;28;20263;-67
2022/12/09 06:36:22;;;;;;;5.17;1.30;;;25.50;34.80;;;;;;5052114;28;20183;-67
2022/12/09 06:38:50;;;;;;;2.30;1.00;;;24.80;35.30;;;;;;5046230;28;20216;-67
2022/12/09 06:41:17;;;;;;;7.50;1.70;;;23.70;36.80;;;;;;5041536;28;20180;-65
2022/12/09 06:43:45;;;;;;;5.37;1.60;;;23.30;37.50;;;;;;5041398;28;20228;-67
2022/12/09 06:46:21;;;;;;;8.67;1.40;;;23.20;39.30;;;;;;5044916;28;20188;-67
2022/12/09 06:48:49;;;;;;;4.13;1.30;;;23.10;39.70;;;;;;5041432;28;20189;-68
2022/12/09 06:51:17;;;;;;;6.43;1.47;;;23.10;38.70;;;;;;5048498;28;20223;-65
2022/12/09 06:53:45;;;;;;;3.10;1.17;;;23.30;38.40;;;;;;5045138;28;20223;-68
2022/12/09 06:56:13;;;;;;;5.30;1.43;;;23.30;38.00;;;;;;5037384;28;20234;-65
2022/12/09 06:58:43;;;;;;;6.83;1.23;;;23.60;38.00;;;;;;5044230;28;20188;-67
2022/12/09 07:01:22;;;;;;;4.83;1.63;;;23.10;38.80;;;;;;5047527;28;20690;-67
2022/12/09 07:03:53;;;;;;;4.47;1.37;;;22.30;42.50;;;;;;5043433;28;20184;-68
2022/12/09 07:06:35;;;;;;;6.17;1.60;;;22.30;42.10;;;;;;5048215;28;20255;-66
2022/12/09 07:09:14;;;;;;;5.33;1.17;;;22.60;41.70;;;;;;5045784;28;20183;-66
2022/12/09 07:11:44;;;;;;;8.40;1.63;;;22.00;43.40;;;;;;5048840;28;20606;-65
2022/12/09 07:14:12;;;;;;;7.40;1.50;;;21.50;45.30;;;;;;5042866;28;20180;-65
2022/12/09 07:16:40;;;;;;;5.33;1.60;;;21.20;45.70;;;;;;5038384;28;20272;-65
2022/12/09 07:19:15;;;;;;;5.73;1.50;;;21.20;46.40;;;;;;5032307;28;20219;-64
2022/12/09 07:21:42;;;;;;;9.07;1.50;;;21.00;45.80;;;;;;5032995;28;20579;-65
2022/12/09 07:24:11;;;;;;;4.87;1.53;;;20.90;46.90;;;;;;5032043;28;20612;-69
2022/12/09 07:26:39;;;;;;;5.60;1.47;;;20.30;48.20;;;;;;5033740;28;20172;-67
2022/12/09 07:29:07;;;;;;;3.93;1.00;;;20.30;47.70;;;;;;5037474;28;20188;-66
2022/12/09 07:31:35;;;;;;;7.03;1.60;;;20.50;46.60;;;;;;5032262;28;20219;-66
2022/12/09 07:34:04;;;;;;;8.00;1.63;;;20.30;46.90;;;;;;5044295;28;20693;-65
2022/12/09 07:36:33;;;;;;;8.23;1.53;;;20.30;47.80;;;;;;5040952;28;20730;-65
2022/12/09 07:39:11;;;;;;;4.23;1.27;;;20.10;49.10;;;;;;5033102;28;20267;-66
2022/12/09 07:41:39;;;;;;;6.80;2.00;;;20.00;50.20;;;;;;5035990;28;20670;-65
2022/12/09 07:44:07;;;;;;;2.87;1.40;;;19.90;51.30;;;;;;5037124;28;20177;-66
2022/12/09 07:46:35;;;;;;;6.20;1.73;;;20.00;51.60;;;;;;5035762;28;20249;-67
2022/12/09 07:49:04;;;;;;;7.63;1.73;;;20.00;51.30;;;;;;5039929;28;20183;-65
2022/12/09 07:51:32;;;;;;;8.43;1.67;;;20.10;50.80;;;;;;5049515;28;20215;-65
2022/12/09 07:53:59;;;;;;;7.97;1.57;;;20.20;50.50;;;;;;5049477;28;20176;-68
2022/12/09 07:56:27;;;;;;;6.43;1.50;;;20.00;49.30;;;;;;5050711;28;20227;-66
2022/12/09 07:58:55;;;;;;;6.87;1.50;;;19.80;50.20;;;;;;5050574;28;20180;-67
2022/12/09 08:01:25;;;;;;;4.43;1.30;;;19.80;50.10;;;;;;5048357;28;20705;-67
2022/12/09 08:03:53;;;;;;;2.67;1.20;;;19.80;49.40;;;;;;5043359;28;20211;-67
2022/12/09 08:06:23;;;;;;;5.03;1.47;;;19.60;50.30;;;;;;5049694;28;20720;-66
2022/12/09 08:08:51;;;;;;;6.50;1.50;;;19.60;50.70;;;;;;5050675;28;20176;-69
2022/12/09 08:11:22;;;;;;;8.17;1.77;;;19.80;50.80;;;;;;5044829;28;20303;-67
2022/12/09 08:13:50;;;;;;;5.67;1.60;;;19.80;50.10;;;;;;5052909;28;20176;-68
2022/12/09 08:16:20;;;;;;;4.63;1.37;;;19.70;49.50;;;;;;5046546;28;20184;-65
2022/12/09 08:18:48;;;;;;;9.03;1.60;;;19.60;50.10;;;;;;5040743;28;20179;-65
2022/12/09 08:21:19;;;;;;;7.50;1.60;;;19.60;50.40;;;;;;5047934;28;20187;-66
2022/12/09 08:23:47;;;;;;;5.23;1.40;;;19.40;51.80;;;;;;5048271;28;20186;-68
2022/12/09 08:26:17;;;;;;;9.67;1.50;;;19.30;51.80;;;;;;5048646;28;20195;-66
2022/12/09 08:28:44;;;;;;;7.30;1.70;;;19.10;51.70;;;;;;5045517;28;20191;-65
2022/12/09 08:31:26;;;;;;;5.00;1.90;;;19.20;51.70;;;;;;5050635;28;20226;-68
2022/12/09 08:33:54;;;;;;;6.87;1.40;;;19.10;52.40;;;;;;5042302;28;20218;-65
2022/12/09 08:36:24;;;;;;;7.60;1.83;;;19.10;53.10;;;;;;5051853;28;20220;-67
2022/12/09 08:38:52;;;;;;;9.47;1.57;;;19.00;53.70;;;;;;5049404;28;20191;-67
2022/12/09 08:41:33;;;;;;;7.83;2.13;;;18.80;54.40;;;;;;5047782;28;20516;-68
2022/12/09 08:44:22;;;;;;;5.60;1.60;;;18.90;54.50;;;;;;5040660;28;20185;-67
2022/12/09 08:46:51;;;;;;;10.17;1.90;;;18.80;54.90;;;;;;5036861;28;20188;-65
2022/12/09 08:49:20;;;;;;;8.20;1.53;;;18.70;55.30;;;;;;5042662;28;20246;-67
2022/12/09 08:51:49;;;;;;;6.20;1.40;;;18.70;55.50;;;;;;5049411;28;20194;-68
2022/12/09 08:54:18;;;;;;;7.13;1.70;;;18.60;55.70;;;;;;5049491;28;20176;-65
2022/12/09 08:56:46;;;;;;;11.10;2.03;;;18.60;56.00;;;;;;5048592;28;20192;-65
2022/12/09 08:59:15;;;;;;;8.07;1.97;;;18.50;56.30;;;;;;5049211;28;20697;-67
2022/12/09 09:01:42;;;;;;;6.33;1.70;;;18.50;56.60;;;;;;5036659;28;20535;-65
2022/12/09 09:04:12;;;;;;;7.67;1.73;;;18.50;57.00;;;;;;5047796;28;20244;-66
2022/12/09 09:06:42;;;;;;;10.80;1.70;;;18.50;56.80;;;;;;5038716;28;20181;-66
2022/12/09 09:09:11;;;;;;;8.70;1.93;;;18.40;58.00;;;;;;5039718;28;20681;-67
2022/12/09 09:11:40;;;;;;;7.50;2.10;;;18.40;59.00;;;;;;5041661;28;20551;-67
2022/12/09 09:14:09;;;;;;;8.83;1.97;;;18.40;59.00;;;;;;5043920;28;20203;-66
2022/12/09 09:16:40;;;;;;;8.27;1.90;;;18.40;59.30;;;;;;5046059;28;20533;-67
2022/12/09 09:19:07;;;;;;;8.77;2.07;;;18.50;59.30;;;;;;5045818;28;20704;-66
2022/12/09 09:21:35;;;;;;;13.97;1.73;;;18.50;59.60;;;;;;5047723;28;20226;-65
2022/12/09 09:24:07;;;;;;;15.53;2.63;;;18.50;59.60;;;;;;5044679;28;20183;-67
2022/12/09 09:26:34;;;;;;;13.07;2.70;;;18.50;59.50;;;;;;5048097;28;20620;-66
2022/12/09 09:29:02;;;;;;;10.63;2.47;;;18.40;59.90;;;;;;5045567;28;20177;-66
2022/12/09 09:31:29;;;;;;;10.73;2.20;;;18.50;59.70;;;;;;5047320;28;20212;-66
2022/12/09 09:33:56;;;;;;;10.73;2.37;;;18.40;59.10;;;;;;5047109;28;20710;-67
2022/12/09 09:36:25;;;;;;;9.03;1.97;;;18.30;58.40;;;;;;5048727;28;20577;-66
2022/12/09 09:38:54;;;;;;;7.40;1.70;;;18.30;58.00;;;;;;5046067;28;20185;-65
2022/12/09 09:41:37;;;;;;;6.80;1.93;;;18.30;57.70;;;;;;5048080;28;20186;-66
2022/12/09 09:44:16;;;;;;;7.37;1.70;;;18.30;57.70;;;;;;5047600;28;20172;-66
2022/12/09 09:46:46;;;;;;;8.07;2.00;;;18.20;58.00;;;;;;5052535;28;20590;-67
2022/12/09 09:49:30;;;;;;;7.37;2.17;;;18.20;58.50;;;;;;5051375;28;20226;-66
2022/12/09 09:51:58;;;;;;;10.80;2.20;;;18.20;58.40;;;;;;5042362;28;20595;-66
2022/12/09 09:54:26;;;;;;;9.50;1.93;;;18.30;58.00;;;;;;5050706;28;20199;-67
2022/12/09 09:57:17;;;;;;;7.97;1.73;;;18.30;56.90;;;;;;5065124;28;20184;-67
2022/12/09 10:00:01;;;;;;;12.10;1.97;;;18.30;56.40;;;;;;5048131;28;20191;-66
2022/12/09 10:02:51;;;;;;;10.40;1.90;;;18.30;55.80;;;;;;5052850;28;20179;-67
2022/12/09 10:05:24;;;;;;;6.70;1.90;;;18.20;55.50;;;;;;5045273;28;20192;-67
2022/12/09 10:08:10;;;;;;;9.07;1.97;;;18.30;55.10;;;;;;5054089;28;20180;-66
2022/12/09 10:10:43;;;;;;;7.10;1.80;;;18.30;55.20;;;;;;5049141;28;20844;-66
2022/12/09 10:13:41;;;;;;;7.93;1.80;;;18.40;55.40;;;;;;5044265;28;20231;-66
2022/12/09 10:16:42;;;;;;;8.87;2.13;;;18.40;56.40;;;;;;5076281;28;20196;-67
2022/12/09 10:19:37;;;;;;;11.23;2.43;;;18.30;58.20;;;;;;5043015;28;20267;-67
2022/12/09 10:22:19;;;;;;;7.77;1.90;;;18.30;58.80;;;;;;5040297;28;20184;-67
2022/12/09 10:24:54;;;;;;;16.37;2.70;;;18.40;59.20;;;;;;5047073;28;20320;-66
2022/12/09 10:27:42;;;;;;;12.87;1.97;;;18.40;59.20;;;;;;5042747;28;20631;-67
2022/12/09 10:30:14;;;;;;;11.03;2.27;;;18.40;59.20;;;;;;5043631;28;20246;-67
2022/12/09 10:32:42;;;;;;;12.47;2.53;;;18.30;59.50;;;;;;5045252;28;20180;-69
2022/12/09 10:35:24;;;;;;;8.17;2.27;;;18.30;59.40;;;;;;5048611;28;20188;-67
2022/12/09 10:37:54;;;;;;;11.37;2.10;;;18.30;59.10;;;;;;5048638;28;20179;-67
2022/12/09 10:40:34;;;;;;;9.57;1.93;;;18.30;58.50;;;;;;5044638;28;20184;-68
2022/12/09 10:46:08;;;;;;;11.97;2.27;;;18.30;57.30;;;;;;5048552;28;20257;-68
2022/12/09 10:48:48;;;;;;;11.20;2.23;;;18.30;57.60;;;;;;5049497;28;20912;-67
2022/12/09 10:51:29;;;;;;;13.93;1.90;;;18.30;57.90;;;;;;5048051;28;20737;-68
2022/12/09 10:54:05;;;;;;;10.77;2.13;;;18.30;57.50;;;;;;5038352;28;20183;-67
2022/12/09 10:56:35;;;;;;;7.43;2.03;;;18.40;57.10;;;;;;5050917;28;20255;-66
2022/12/09 10:59:19;;;;;;;9.00;1.90;;;18.30;57.10;;;;;;5043192;28;20346;-68
2022/12/09 11:01:55;;;;;;;6.10;2.03;;;18.30;57.30;;;;;;5038221;28;20180;-67
2022/12/09 11:04:27;;;;;;;10.43;2.70;;;18.30;57.10;;;;;;5048950;28;20271;-68
2022/12/09 11:07:12;;;;;;;13.90;6.07;;;18.30;57.20;;;;;;5040803;28;20187;-66
2022/12/09 11:09:43;;;;;;;7.67;2.00;;;18.30;57.40;;;;;;5035785;28;20184;-68
2022/12/09 11:12:32;;;;;;;8.97;2.20;;;18.30;56.40;;;;;;5040733;28;20196;-67
2022/12/09 11:15:25;;;;;;;13.37;2.60;;;18.30;56.10;;;;;;5038748;28;20226;-68
2022/12/09 11:17:59;;;;;;;9.83;2.37;;;18.40;56.20;;;;;;5038123;28;20645;-68
2022/12/09 11:20:31;;;;;;;14.53;3.10;;;18.30;56.50;;;;;;5033799;28;20198;-67
2022/12/09 11:23:19;;;;;;;7.57;2.03;;;18.30;56.90;;;;;;5043466;28;20183;-69
2022/12/09 11:26:20;;;;;;;9.83;1.93;;;18.30;56.60;;;;;;5043087;28;20184;-70
2022/12/09 11:29:02;;;;;;;7.60;2.10;;;18.30;56.50;;;;;;5035417;28;20646;-68
2022/12/09 11:31:33;;;;;;;13.20;2.50;;;18.30;57.20;;;;;;5032953;28;20251;-68
2022/12/09 11:34:14;;;;;;;9.73;2.07;;;18.30;57.40;;;;;;5037409;28;20669;-68
2022/12/09 11:36:53;;;;;;;10.43;2.40;;;18.30;57.40;;;;;;5047367;28;20176;-68
2022/12/09 11:39:34;;;;;;;11.23;2.10;;;18.20;56.70;;;;;;5042157;28;20172;-68
2022/12/09 11:42:21;;;;;;;13.50;2.20;;;18.20;56.50;;;;;;5039987;28;20662;-68
2022/12/09 11:45:03;;;;;;;8.83;2.47;;;18.20;56.60;;;;;;5038867;28;20260;-68
2022/12/09 11:47:38;;;;;;;9.10;2.20;;;18.20;56.50;;;;;;5033570;28;20188;-67
2022/12/09 11:50:30;;;;;;;8.90;2.17;;;18.30;56.90;;;;;;5034412;28;20290;-67
2022/12/09 11:53:22;;;;;;;10.07;2.10;;;18.20;56.70;;;;;;5057218;28;20607;-67
2022/12/09 11:56:12;;;;;;;11.57;2.20;;;18.20;56.90;;;;;;5040881;28;20262;-67
2022/12/09 11:58:49;;;;;;;11.40;2.47;;;18.10;57.30;;;;;;5037419;28;20179;-68
2022/12/09 12:01:37;;;;;;;8.97;2.57;;;18.20;57.70;;;;;;5048263;28;20184;-67
2022/12/09 12:04:12;;;;;;;15.70;2.80;;;18.20;57.90;;;;;;5053650;28;20179;-66
2022/12/09 12:07:04;;;;;;;15.83;2.33;;;18.20;58.10;;;;;;5032534;28;20709;-66
2022/12/09 12:09:49;;;;;;;13.80;2.53;;;18.10;58.20;;;;;;5032813;28;20242;-67
2022/12/09 12:12:21;;;;;;;15.83;2.80;;;18.10;58.50;;;;;;5052011;28;20551;-68
2022/12/09 12:14:48;;;;;;;19.37;3.00;;;18.10;58.60;;;;;;5032694;28;20176;-67
2022/12/09 12:17:27;;;;;;;14.30;2.73;;;18.00;58.60;;;;;;5039706;28;20255;-67
2022/12/09 12:19:56;;;;;;;9.70;2.20;;;18.10;58.50;;;;;;5046258;28;20275;-67
2022/12/09 12:22:58;;;;;;;8.70;2.30;;;18.10;58.20;;;;;;5032423;28;20536;-66
2022/12/09 12:25:37;;;;;;;12.57;2.30;;;18.00;58.60;;;;;;5032632;28;20709;-68
2022/12/09 12:28:49;;;;;;;9.17;2.07;;;18.10;58.10;;;;;;5036279;28;20176;-69
2022/12/09 12:31:27;;;;;;;11.43;2.57;;;18.00;58.00;;;;;;5042514;28;20303;-68
2022/12/09 12:34:09;;;;;;;10.53;2.47;;;18.00;57.60;;;;;;5032760;28;20191;-67
2022/12/09 12:36:43;;;;;;;11.60;2.40;;;18.00;57.50;;;;;;5037921;28;20187;-68
2022/12/09 12:39:26;;;;;;;11.33;2.87;;;18.10;58.00;;;;;;5042393;28;20185;-68
2022/12/09 12:42:22;;;;;;;12.07;2.30;;;18.00;58.10;;;;;;5047422;28;20199;-68
2022/12/09 12:47:57;;;;;;;12.07;2.27;;;18.00;58.90;;;;;;5045190;28;20257;-68
2022/12/09 12:50:33;;;;;;;10.47;2.70;;;18.00;59.00;;;;;;5054366;28;20214;-68
2022/12/09 12:53:36;;;;;;;11.70;3.00;;;17.90;59.00;;;;;;5055624;28;20204;-67
2022/12/09 12:56:36;;;;;;;9.40;2.27;;;18.00;59.10;;;;;;5049885;28;20224;-67
2022/12/09 12:59:23;;;;;;;7.63;1.93;;;18.00;58.90;;;;;;5035893;28;20220;-71
2022/12/09 13:02:15;;;;;;;10.53;2.30;;;18.00;58.80;;;;;;5053292;28;20215;-69
2022/12/09 13:04:48;;;;;;;10.20;2.20;;;18.00;58.70;;;;;;5049129;28;20191;-67
2022/12/09 13:07:18;;;;;;;17.47;2.67;;;17.90;59.80;;;;;;5050484;28;20192;-67
2022/12/09 13:09:51;;;;;;;8.63;2.57;;;17.90;59.50;;;;;;5051829;28;20267;-67
2022/12/09 13:12:57;;;;;;;13.33;1.90;;;17.90;59.40;;;;;;5052543;28;20313;-67
2022/12/09 13:15:33;;;;;;;12.73;2.57;;;17.80;59.40;;;;;;5049128;28;20676;-68
2022/12/09 13:18:16;;;;;;;14.37;3.13;;;17.80;58.80;;;;;;5048524;28;20191;-68
2022/12/09 13:20:50;;;;;;;14.37;2.87;;;17.80;58.90;;;;;;5047423;28;20187;-67